Terminal Aerodrome Forecast
Issued by NWS

Home | Current Version | Previous Version | Graphics & Text | Print | Product List | Glossary On
Versions: 1 2 3 4 5 6 7 8 9 10 11 12 13 14 15 16 17 18 19 20
000
FTUS43 KBIS 231618 AAC
TAFJMS
TAF AMD
KJMS 231618Z 2316/2412 19012KT P6SM VCSH OVC060
     FM231800 26007KT P6SM VCSH OVC050
     FM231900 02007KT P6SM VCSH OVC025
     FM240200 36006KT P6SM OVC025
     FM240700 35009KT P6SM BKN015=

USA.gov is the U.S. government's official web portal to all federal, state and local government web resources and services.